RYR71YQ LMML-LFBT
Flight info
| Callsign | RYR71YQ |
|---|---|
| Flight time | 2h 15m |
| Altitude | 38000 |
| Route | GZO DCT ADEXI DCT GISIG DCT BELOK DCT ALEDI DCT GINOX DCT TINOT DCT SUBIL DCT IMU27 DCT LAPRO/N0441F370 DCT SULIT DCT TEPTI |
| Aircraft | B738/M-SDE3FGILRWY/SB1 |
Departure
| Time | 2026-05-04 13:49 |
|---|---|
| Airport | Malta International Airport (LMML) |
Arrival
| Time | 2026-05-04 16:05 |
|---|---|
| Airport | Tarbes-Lourdes-Pyrénées Airport (LFBT) |
| Time | Latitude | Longitude | Altitude | Speed | Heading |
|---|---|---|---|---|---|
| 2026-05-04 13:22 | 35.84957 | 14.49338 | 258 ft | 0 kts | 0° |
| 2026-05-04 13:42 | 35.84959 | 14.49338 | 258 ft | 0 kts | 0° |
| 2026-05-04 13:43 | 35.84962 | 14.49335 | 258 ft | 1 kts | 330° |
| 2026-05-04 13:44 | 35.84961 | 14.49321 | 258 ft | 4 kts | 266° |
| 2026-05-04 13:44 | 35.84952 | 14.49248 | 259 ft | 10 kts | 260° |
| 2026-05-04 13:44 | 35.84930 | 14.49197 | 259 ft | 10 kts | 236° |
| 2026-05-04 13:44 | 35.84907 | 14.49119 | 260 ft | 10 kts | 275° |
| 2026-05-04 13:45 | 35.84941 | 14.49049 | 260 ft | 10 kts | 313° |
| 2026-05-04 13:45 | 35.84981 | 14.48986 | 261 ft | 9 kts | 291° |
| 2026-05-04 13:45 | 35.85013 | 14.48919 | 261 ft | 9 kts | 315° |
| 2026-05-04 13:45 | 35.85057 | 14.48864 | 262 ft | 10 kts | 314° |
| 2026-05-04 13:46 | 35.85104 | 14.48805 | 263 ft | 10 kts | 314° |
| 2026-05-04 13:46 | 35.85158 | 14.48738 | 263 ft | 12 kts | 316° |
| 2026-05-04 13:46 | 35.85223 | 14.48661 | 264 ft | 13 kts | 316° |
| 2026-05-04 13:46 | 35.85296 | 14.48573 | 264 ft | 16 kts | 315° |
| 2026-05-04 13:47 | 35.85390 | 14.48468 | 265 ft | 20 kts | 317° |
| 2026-05-04 13:47 | 35.85494 | 14.48344 | 265 ft | 20 kts | 314° |
| 2026-05-04 13:47 | 35.85576 | 14.48241 | 264 ft | 14 kts | 320° |
| 2026-05-04 13:47 | 35.85652 | 14.48173 | 262 ft | 14 kts | 298° |
| 2026-05-04 13:48 | 35.85659 | 14.48097 | 263 ft | 7 kts | 271° |
| 2026-05-04 13:48 | 35.85660 | 14.48041 | 265 ft | 6 kts | 274° |
| 2026-05-04 13:48 | 35.85660 | 14.47964 | 267 ft | 12 kts | 249° |
| 2026-05-04 13:48 | 35.85601 | 14.47941 | 269 ft | 10 kts | 144° |
| 2026-05-04 13:49 | 35.85475 | 14.48094 | 266 ft | 56 kts | 135° |
| 2026-05-04 13:49 | 35.85029 | 14.48645 | 264 ft | 123 kts | 135° |
| 2026-05-04 13:49 | 35.84278 | 14.49519 | 370 ft | 165 kts | 141° |
| 2026-05-04 13:49 | 35.83454 | 14.50513 | 1138 ft | 164 kts | 136° |
| 2026-05-04 13:50 | 35.82561 | 14.51351 | 1875 ft | 169 kts | 165° |
| 2026-05-04 13:50 | 35.81342 | 14.51158 | 2178 ft | 196 kts | 212° |
| 2026-05-04 13:50 | 35.80458 | 14.49762 | 2429 ft | 222 kts | 241° |
| 2026-05-04 13:50 | 35.79720 | 14.48029 | 2859 ft | 234 kts | 240° |
| 2026-05-04 13:51 | 35.78881 | 14.46193 | 3172 ft | 254 kts | 239° |
| 2026-05-04 13:51 | 35.77980 | 14.44295 | 3965 ft | 257 kts | 238° |
| 2026-05-04 13:51 | 35.77053 | 14.42382 | 4691 ft | 264 kts | 238° |
| 2026-05-04 13:51 | 35.76119 | 14.40413 | 5434 ft | 269 kts | 244° |
| 2026-05-04 13:52 | 35.75947 | 14.35910 | 6995 ft | 270 kts | 291° |
| 2026-05-04 13:52 | 35.76916 | 14.33955 | 7811 ft | 270 kts | 314° |
| 2026-05-04 13:52 | 35.78415 | 14.32565 | 8505 ft | 275 kts | 333° |
| 2026-05-04 13:53 | 35.80189 | 14.31637 | 9258 ft | 277 kts | 338° |
| 2026-05-04 13:53 | 35.81985 | 14.30795 | 10094 ft | 278 kts | 339° |
| 2026-05-04 13:53 | 35.83830 | 14.29942 | 10507 ft | 292 kts | 339° |
| 2026-05-04 13:54 | 35.87914 | 14.28033 | 11000 ft | 330 kts | 338° |
| 2026-05-04 13:54 | 35.90077 | 14.27011 | 11615 ft | 335 kts | 338° |
| 2026-05-04 13:54 | 35.94449 | 14.24930 | 13067 ft | 339 kts | 337° |
| 2026-05-04 13:55 | 35.96660 | 14.23873 | 13803 ft | 342 kts | 336° |
| 2026-05-04 13:55 | 36.01129 | 14.21734 | 15205 ft | 347 kts | 336° |
| 2026-05-04 13:55 | 36.03379 | 14.20643 | 15913 ft | 348 kts | 334° |
| 2026-05-04 13:56 | 36.05481 | 14.19163 | 16619 ft | 349 kts | 324° |
| 2026-05-04 13:56 | 36.07469 | 14.17419 | 17320 ft | 352 kts | 323° |
| 2026-05-04 13:56 | 36.11445 | 14.13792 | 18606 ft | 358 kts | 323° |
| 2026-05-04 13:57 | 36.13461 | 14.11961 | 19200 ft | 361 kts | 323° |
| 2026-05-04 13:57 | 36.15494 | 14.10127 | 19820 ft | 363 kts | 323° |
| 2026-05-04 13:58 | 36.21687 | 14.04594 | 21544 ft | 370 kts | 323° |
| 2026-05-04 13:58 | 36.25893 | 14.00853 | 22645 ft | 375 kts | 322° |
| 2026-05-04 13:58 | 36.28018 | 13.98962 | 23185 ft | 377 kts | 322° |
| 2026-05-04 13:59 | 36.30157 | 13.97059 | 23712 ft | 380 kts | 322° |
| 2026-05-04 13:59 | 36.32307 | 13.95145 | 24159 ft | 382 kts | 322° |
| 2026-05-04 13:59 | 36.36637 | 13.91287 | 25073 ft | 385 kts | 322° |
| 2026-05-04 14:00 | 36.38815 | 13.89344 | 25519 ft | 386 kts | 322° |
| 2026-05-04 14:00 | 36.43167 | 13.85458 | 26395 ft | 389 kts | 322° |
| 2026-05-04 14:00 | 36.45371 | 13.83487 | 26795 ft | 392 kts | 322° |
| 2026-05-04 14:01 | 36.47589 | 13.81502 | 27162 ft | 395 kts | 322° |
| 2026-05-04 14:01 | 36.49822 | 13.79503 | 27563 ft | 396 kts | 322° |
| 2026-05-04 14:01 | 36.54313 | 13.75479 | 28387 ft | 399 kts | 322° |
| 2026-05-04 14:02 | 36.56566 | 13.73457 | 28764 ft | 401 kts | 322° |
| 2026-05-04 14:02 | 36.58832 | 13.71423 | 29143 ft | 403 kts | 322° |
| 2026-05-04 14:02 | 36.61106 | 13.69379 | 29511 ft | 404 kts | 322° |
| 2026-05-04 14:02 | 36.63394 | 13.67321 | 29875 ft | 406 kts | 322° |
| 2026-05-04 14:03 | 36.65685 | 13.65260 | 30221 ft | 407 kts | 322° |
| 2026-05-04 14:03 | 36.67986 | 13.63187 | 30510 ft | 409 kts | 322° |
| 2026-05-04 14:03 | 36.70297 | 13.61104 | 30802 ft | 411 kts | 322° |
| 2026-05-04 14:03 | 36.72611 | 13.59017 | 31136 ft | 410 kts | 322° |
| 2026-05-04 14:04 | 36.77222 | 13.54855 | 31918 ft | 407 kts | 321° |
| 2026-05-04 14:04 | 36.79514 | 13.52783 | 32274 ft | 407 kts | 321° |
| 2026-05-04 14:04 | 36.81803 | 13.50713 | 32616 ft | 406 kts | 321° |
| 2026-05-04 14:05 | 36.86372 | 13.46573 | 33183 ft | 408 kts | 321° |
| 2026-05-04 14:05 | 36.88668 | 13.44490 | 33467 ft | 408 kts | 321° |
| 2026-05-04 14:05 | 36.90958 | 13.42413 | 33865 ft | 406 kts | 321° |
| 2026-05-04 14:06 | 36.93206 | 13.40372 | 34239 ft | 404 kts | 320° |
| 2026-05-04 14:06 | 36.95477 | 13.38309 | 34503 ft | 404 kts | 320° |
| 2026-05-04 14:06 | 36.97743 | 13.36248 | 34842 ft | 401 kts | 320° |
| 2026-05-04 14:06 | 36.99990 | 13.34204 | 35223 ft | 398 kts | 320° |
| 2026-05-04 14:07 | 37.02227 | 13.32166 | 35478 ft | 398 kts | 320° |
| 2026-05-04 14:07 | 37.04467 | 13.30124 | 35670 ft | 399 kts | 320° |
| 2026-05-04 14:07 | 37.06712 | 13.28075 | 35910 ft | 399 kts | 320° |
| 2026-05-04 14:07 | 37.08948 | 13.26033 | 36197 ft | 398 kts | 320° |
| 2026-05-04 14:08 | 37.11183 | 13.23992 | 36452 ft | 397 kts | 320° |
| 2026-05-04 14:08 | 37.13411 | 13.21954 | 36666 ft | 397 kts | 320° |
| 2026-05-04 14:08 | 37.15643 | 13.19911 | 36889 ft | 397 kts | 320° |
| 2026-05-04 14:08 | 37.17873 | 13.17870 | 37137 ft | 396 kts | 320° |
| 2026-05-04 14:09 | 37.22333 | 13.13780 | 37504 ft | 398 kts | 320° |
| 2026-05-04 14:09 | 37.24567 | 13.11729 | 37714 ft | 398 kts | 320° |
| 2026-05-04 14:10 | 37.29026 | 13.07633 | 38131 ft | 397 kts | 320° |
| 2026-05-04 14:10 | 37.33511 | 13.03505 | 38134 ft | 400 kts | 320° |
| 2026-05-04 14:11 | 37.37737 | 12.99057 | 38142 ft | 394 kts | 314° |
| 2026-05-04 14:11 | 37.43720 | 12.92036 | 38138 ft | 390 kts | 314° |
| 2026-05-04 14:12 | 37.47689 | 12.87391 | 38134 ft | 389 kts | 314° |
| 2026-05-04 14:13 | 37.53652 | 12.80451 | 38133 ft | 389 kts | 314° |
| 2026-05-04 14:13 | 37.57636 | 12.75815 | 38127 ft | 390 kts | 314° |
| 2026-05-04 14:14 | 37.61628 | 12.71166 | 38128 ft | 392 kts | 314° |
| 2026-05-04 14:14 | 37.67644 | 12.64145 | 38129 ft | 394 kts | 314° |
| 2026-05-04 14:15 | 37.75684 | 12.54738 | 38131 ft | 397 kts | 314° |
| 2026-05-04 14:16 | 37.81763 | 12.47607 | 38130 ft | 398 kts | 314° |
| 2026-05-04 14:17 | 37.87848 | 12.40451 | 38127 ft | 398 kts | 314° |
| 2026-05-04 14:18 | 37.93914 | 12.33301 | 38129 ft | 397 kts | 314° |
| 2026-05-04 14:19 | 38.01972 | 12.23777 | 38123 ft | 395 kts | 314° |
| 2026-05-04 14:19 | 38.05990 | 12.19015 | 38108 ft | 395 kts | 314° |
| 2026-05-04 14:20 | 38.09999 | 12.14258 | 38103 ft | 394 kts | 314° |
| 2026-05-04 14:20 | 38.13999 | 12.09503 | 38099 ft | 394 kts | 313° |
| 2026-05-04 14:21 | 38.19987 | 12.02373 | 38092 ft | 393 kts | 313° |
| 2026-05-04 14:21 | 38.23972 | 11.97617 | 38097 ft | 393 kts | 313° |
| 2026-05-04 14:22 | 38.27956 | 11.92855 | 38094 ft | 393 kts | 313° |
| 2026-05-04 14:22 | 38.31945 | 11.88079 | 38095 ft | 394 kts | 313° |
| 2026-05-04 14:23 | 38.37937 | 11.80892 | 38091 ft | 395 kts | 313° |
| 2026-05-04 14:24 | 38.41937 | 11.76084 | 38091 ft | 396 kts | 313° |
| 2026-05-04 14:24 | 38.45944 | 11.71261 | 38082 ft | 396 kts | 313° |
| 2026-05-04 14:25 | 38.49955 | 11.66425 | 38085 ft | 397 kts | 313° |
| 2026-05-04 14:25 | 38.55975 | 11.59152 | 38092 ft | 398 kts | 313° |
| 2026-05-04 14:26 | 38.59994 | 11.54287 | 38086 ft | 398 kts | 313° |
| 2026-05-04 14:26 | 38.64017 | 11.49408 | 38085 ft | 399 kts | 313° |
| 2026-05-04 14:27 | 38.68040 | 11.44522 | 38080 ft | 399 kts | 313° |
| 2026-05-04 14:27 | 38.72061 | 11.39631 | 38079 ft | 399 kts | 313° |
| 2026-05-04 14:28 | 38.76080 | 11.34734 | 38080 ft | 399 kts | 312° |
| 2026-05-04 14:28 | 38.80095 | 11.29833 | 38081 ft | 398 kts | 312° |
| 2026-05-04 14:29 | 38.87442 | 11.20844 | 38075 ft | 399 kts | 312° |
| 2026-05-04 14:30 | 38.91448 | 11.15931 | 38078 ft | 398 kts | 312° |
| 2026-05-04 14:31 | 38.97455 | 11.08551 | 38083 ft | 398 kts | 312° |
| 2026-05-04 14:32 | 39.04297 | 10.97552 | 38077 ft | 393 kts | 303° |
| 2026-05-04 14:32 | 39.07519 | 10.91854 | 38104 ft | 394 kts | 303° |
| 2026-05-04 14:33 | 39.10755 | 10.86154 | 38078 ft | 394 kts | 303° |
| 2026-05-04 14:33 | 39.13996 | 10.80449 | 38072 ft | 394 kts | 303° |
| 2026-05-04 14:34 | 39.17211 | 10.74783 | 38069 ft | 394 kts | 303° |
| 2026-05-04 14:34 | 39.20441 | 10.69079 | 38071 ft | 394 kts | 303° |
| 2026-05-04 14:35 | 39.23670 | 10.63367 | 38073 ft | 394 kts | 303° |
| 2026-05-04 14:35 | 39.26894 | 10.57652 | 38073 ft | 394 kts | 303° |
| 2026-05-04 14:36 | 39.30113 | 10.51937 | 38073 ft | 394 kts | 303° |
| 2026-05-04 14:36 | 39.33327 | 10.46219 | 38067 ft | 393 kts | 303° |
| 2026-05-04 14:37 | 39.36536 | 10.40501 | 38063 ft | 393 kts | 303° |
| 2026-05-04 14:37 | 39.39741 | 10.34801 | 38069 ft | 392 kts | 304° |
| 2026-05-04 14:38 | 39.43083 | 10.29233 | 38071 ft | 391 kts | 305° |
| 2026-05-04 14:38 | 39.46445 | 10.23706 | 38064 ft | 391 kts | 305° |
| 2026-05-04 14:39 | 39.49784 | 10.18168 | 38075 ft | 390 kts | 304° |
| 2026-05-04 14:39 | 39.53106 | 10.12624 | 38064 ft | 389 kts | 304° |
| 2026-05-04 14:40 | 39.58074 | 10.04310 | 38062 ft | 389 kts | 304° |
| 2026-05-04 14:40 | 39.61384 | 9.98764 | 38086 ft | 389 kts | 305° |
| 2026-05-04 14:41 | 39.64834 | 9.93348 | 38070 ft | 390 kts | 307° |
| 2026-05-04 14:42 | 39.71839 | 9.82623 | 38087 ft | 389 kts | 306° |
| 2026-05-04 14:42 | 39.75312 | 9.77248 | 38083 ft | 388 kts | 306° |
| 2026-05-04 14:43 | 39.78772 | 9.71872 | 38105 ft | 387 kts | 306° |
| 2026-05-04 14:43 | 39.82201 | 9.66531 | 38088 ft | 387 kts | 306° |
| 2026-05-04 14:44 | 39.85643 | 9.61160 | 38124 ft | 386 kts | 306° |
| 2026-05-04 14:44 | 39.89080 | 9.55789 | 38105 ft | 385 kts | 305° |
| 2026-05-04 14:45 | 39.92502 | 9.50432 | 38079 ft | 384 kts | 305° |
| 2026-05-04 14:45 | 39.95910 | 9.45086 | 38072 ft | 383 kts | 305° |
| 2026-05-04 14:46 | 39.99310 | 9.39743 | 38067 ft | 382 kts | 305° |
| 2026-05-04 14:46 | 40.02707 | 9.34398 | 38049 ft | 383 kts | 305° |
| 2026-05-04 14:47 | 40.06104 | 9.29041 | 38071 ft | 384 kts | 305° |
| 2026-05-04 14:47 | 40.09511 | 9.23659 | 38049 ft | 385 kts | 305° |
| 2026-05-04 14:48 | 40.12924 | 9.18260 | 38057 ft | 386 kts | 304° |
| 2026-05-04 14:48 | 40.16345 | 9.12838 | 38062 ft | 387 kts | 304° |
| 2026-05-04 14:49 | 40.19772 | 9.07398 | 38037 ft | 388 kts | 303° |
| 2026-05-04 14:49 | 40.23209 | 9.01932 | 38046 ft | 389 kts | 303° |
| 2026-05-04 14:50 | 40.26651 | 8.96448 | 38036 ft | 390 kts | 303° |
| 2026-05-04 14:50 | 40.30100 | 8.90944 | 38042 ft | 391 kts | 303° |
| 2026-05-04 14:51 | 40.33555 | 8.85418 | 38039 ft | 393 kts | 303° |
| 2026-05-04 14:51 | 40.37020 | 8.79870 | 38034 ft | 393 kts | 303° |
| 2026-05-04 14:52 | 40.40487 | 8.74308 | 38037 ft | 394 kts | 303° |
| 2026-05-04 14:52 | 40.43949 | 8.68743 | 38039 ft | 394 kts | 303° |
| 2026-05-04 14:53 | 40.47412 | 8.63168 | 38037 ft | 394 kts | 303° |
| 2026-05-04 14:53 | 40.50867 | 8.57593 | 38036 ft | 393 kts | 303° |
| 2026-05-04 14:54 | 40.54319 | 8.52013 | 38035 ft | 393 kts | 303° |
| 2026-05-04 14:54 | 40.57762 | 8.46439 | 38029 ft | 392 kts | 303° |
| 2026-05-04 14:55 | 40.61201 | 8.40861 | 38066 ft | 392 kts | 303° |
| 2026-05-04 14:55 | 40.64635 | 8.35281 | 38052 ft | 392 kts | 303° |
| 2026-05-04 14:56 | 40.68042 | 8.29735 | 38050 ft | 392 kts | 302° |
| 2026-05-04 14:56 | 40.71465 | 8.24153 | 38051 ft | 391 kts | 302° |
| 2026-05-04 14:57 | 40.74880 | 8.18573 | 38044 ft | 391 kts | 302° |
| 2026-05-04 14:57 | 40.78293 | 8.12985 | 38013 ft | 391 kts | 302° |
| 2026-05-04 14:58 | 40.81701 | 8.07397 | 38015 ft | 390 kts | 302° |
| 2026-05-04 14:58 | 40.85101 | 8.01812 | 38017 ft | 390 kts | 302° |
| 2026-05-04 14:59 | 40.88668 | 7.96375 | 38026 ft | 394 kts | 305° |
| 2026-05-04 15:00 | 40.94357 | 7.88499 | 38020 ft | 395 kts | 306° |
| 2026-05-04 15:00 | 40.98149 | 7.83232 | 38018 ft | 396 kts | 305° |
| 2026-05-04 15:01 | 41.03826 | 7.75265 | 38021 ft | 397 kts | 305° |
| 2026-05-04 15:01 | 41.07585 | 7.69963 | 38006 ft | 398 kts | 305° |
| 2026-05-04 15:02 | 41.11376 | 7.64605 | 38016 ft | 399 kts | 305° |
| 2026-05-04 15:02 | 41.15179 | 7.59220 | 38018 ft | 400 kts | 305° |
| 2026-05-04 15:03 | 41.18993 | 7.53809 | 38007 ft | 402 kts | 304° |
| 2026-05-04 15:03 | 41.22816 | 7.48374 | 38012 ft | 403 kts | 304° |
| 2026-05-04 15:04 | 41.26652 | 7.42914 | 38009 ft | 405 kts | 304° |
| 2026-05-04 15:04 | 41.30495 | 7.37433 | 38012 ft | 406 kts | 304° |
| 2026-05-04 15:05 | 41.34344 | 7.31933 | 38019 ft | 407 kts | 305° |
| 2026-05-04 15:05 | 41.38200 | 7.26413 | 38014 ft | 407 kts | 305° |
| 2026-05-04 15:06 | 41.42059 | 7.20879 | 38009 ft | 408 kts | 305° |
| 2026-05-04 15:07 | 41.47845 | 7.12560 | 38004 ft | 408 kts | 305° |
| 2026-05-04 15:07 | 41.51695 | 7.07013 | 38009 ft | 407 kts | 305° |
| 2026-05-04 15:08 | 41.55538 | 7.01466 | 38006 ft | 406 kts | 304° |
| 2026-05-04 15:08 | 41.59373 | 6.95918 | 38003 ft | 406 kts | 304° |
| 2026-05-04 15:09 | 41.63204 | 6.90365 | 37996 ft | 407 kts | 304° |
| 2026-05-04 15:09 | 41.67037 | 6.84799 | 37998 ft | 407 kts | 304° |
| 2026-05-04 15:10 | 41.72757 | 6.76475 | 38005 ft | 407 kts | 304° |
| 2026-05-04 15:11 | 41.78519 | 6.68061 | 38000 ft | 411 kts | 304° |
| 2026-05-04 15:11 | 41.82387 | 6.62402 | 38011 ft | 412 kts | 304° |
| 2026-05-04 15:12 | 41.86264 | 6.56719 | 37994 ft | 414 kts | 304° |
| 2026-05-04 15:12 | 41.90144 | 6.51022 | 37993 ft | 413 kts | 304° |
| 2026-05-04 15:13 | 41.94016 | 6.45327 | 38009 ft | 413 kts | 304° |
| 2026-05-04 15:13 | 41.97881 | 6.39627 | 37996 ft | 413 kts | 304° |
| 2026-05-04 15:14 | 42.01745 | 6.33919 | 37986 ft | 413 kts | 304° |
| 2026-05-04 15:14 | 42.05620 | 6.28179 | 37999 ft | 416 kts | 304° |
| 2026-05-04 15:15 | 42.09520 | 6.22393 | 37972 ft | 418 kts | 304° |
| 2026-05-04 15:15 | 42.13414 | 6.16611 | 37985 ft | 416 kts | 304° |
| 2026-05-04 15:16 | 42.19222 | 6.07962 | 38006 ft | 414 kts | 304° |
| 2026-05-04 15:17 | 42.24993 | 5.99341 | 37983 ft | 412 kts | 304° |
| 2026-05-04 15:17 | 42.30084 | 5.91711 | 37984 ft | 410 kts | 304° |
| 2026-05-04 15:18 | 42.33893 | 5.85991 | 37979 ft | 409 kts | 303° |
| 2026-05-04 15:19 | 42.39587 | 5.77419 | 37977 ft | 408 kts | 303° |
| 2026-05-04 15:19 | 42.45268 | 5.68839 | 37993 ft | 408 kts | 303° |
| 2026-05-04 15:20 | 42.49064 | 5.63092 | 37984 ft | 410 kts | 303° |
| 2026-05-04 15:20 | 42.52873 | 5.57314 | 37983 ft | 412 kts | 303° |
| 2026-05-04 15:21 | 42.56690 | 5.51513 | 37983 ft | 413 kts | 303° |
| 2026-05-04 15:22 | 42.62445 | 5.42746 | 37973 ft | 416 kts | 303° |
| 2026-05-04 15:22 | 42.68217 | 5.33927 | 37978 ft | 417 kts | 303° |
| 2026-05-04 15:23 | 42.71719 | 5.27739 | 37981 ft | 409 kts | 295° |
| 2026-05-04 15:23 | 42.74736 | 5.21241 | 37979 ft | 410 kts | 294° |
| 2026-05-04 15:24 | 42.80839 | 5.08115 | 37959 ft | 410 kts | 295° |
| 2026-05-04 15:25 | 42.83906 | 5.01580 | 37954 ft | 409 kts | 295° |
| 2026-05-04 15:26 | 42.88492 | 4.91790 | 37964 ft | 409 kts | 295° |
| 2026-05-04 15:26 | 42.93078 | 4.81962 | 37958 ft | 409 kts | 295° |
| 2026-05-04 15:27 | 42.97648 | 4.72136 | 37946 ft | 408 kts | 295° |
| 2026-05-04 15:28 | 43.02201 | 4.62312 | 37941 ft | 407 kts | 294° |
| 2026-05-04 15:29 | 43.05533 | 4.51877 | 37937 ft | 398 kts | 284° |
| 2026-05-04 15:30 | 43.12603 | 4.27013 | 37935 ft | 405 kts | 285° |
| 2026-05-04 15:31 | 43.15679 | 4.16210 | 37967 ft | 408 kts | 285° |
| 2026-05-04 15:32 | 43.20831 | 3.98010 | 37938 ft | 411 kts | 285° |
| 2026-05-04 15:34 | 43.25964 | 3.79740 | 37950 ft | 410 kts | 285° |
| 2026-05-04 15:34 | 43.29023 | 3.68791 | 37943 ft | 409 kts | 285° |
| 2026-05-04 15:35 | 43.31600 | 3.57708 | 37674 ft | 406 kts | 276° |
| 2026-05-04 15:35 | 43.32134 | 3.53916 | 37449 ft | 403 kts | 275° |
| 2026-05-04 15:36 | 43.33158 | 3.46428 | 36843 ft | 393 kts | 275° |
| 2026-05-04 15:36 | 43.33670 | 3.42755 | 36562 ft | 389 kts | 275° |
| 2026-05-04 15:36 | 43.34184 | 3.39111 | 36315 ft | 388 kts | 275° |
| 2026-05-04 15:37 | 43.34699 | 3.35478 | 36054 ft | 386 kts | 275° |
| 2026-05-04 15:37 | 43.35214 | 3.31864 | 35799 ft | 385 kts | 275° |
| 2026-05-04 15:37 | 43.35727 | 3.28264 | 35553 ft | 384 kts | 275° |
| 2026-05-04 15:37 | 43.36239 | 3.24672 | 35303 ft | 383 kts | 275° |
| 2026-05-04 15:38 | 43.36749 | 3.21085 | 35061 ft | 382 kts | 275° |
| 2026-05-04 15:38 | 43.37256 | 3.17505 | 34819 ft | 382 kts | 275° |
| 2026-05-04 15:38 | 43.37762 | 3.13929 | 34581 ft | 381 kts | 275° |
| 2026-05-04 15:38 | 43.38267 | 3.10351 | 34340 ft | 381 kts | 275° |
| 2026-05-04 15:39 | 43.38770 | 3.06778 | 34099 ft | 381 kts | 275° |
| 2026-05-04 15:39 | 43.39272 | 3.03205 | 33898 ft | 380 kts | 274° |
| 2026-05-04 15:39 | 43.40259 | 2.96170 | 33243 ft | 375 kts | 274° |
| 2026-05-04 15:40 | 43.40755 | 2.92575 | 32888 ft | 391 kts | 274° |
| 2026-05-04 15:40 | 43.41271 | 2.88826 | 32500 ft | 405 kts | 274° |
| 2026-05-04 15:40 | 43.41693 | 2.85004 | 32092 ft | 404 kts | 268° |
| 2026-05-04 15:40 | 43.41713 | 2.81167 | 31744 ft | 402 kts | 263° |
| 2026-05-04 15:41 | 43.41642 | 2.77302 | 31337 ft | 405 kts | 263° |
| 2026-05-04 15:41 | 43.41563 | 2.73414 | 30942 ft | 408 kts | 263° |
| 2026-05-04 15:41 | 43.41486 | 2.69503 | 30543 ft | 411 kts | 263° |
| 2026-05-04 15:41 | 43.41414 | 2.65558 | 30184 ft | 413 kts | 263° |
| 2026-05-04 15:42 | 43.41346 | 2.61626 | 29734 ft | 409 kts | 263° |
| 2026-05-04 15:42 | 43.41284 | 2.57732 | 29306 ft | 405 kts | 263° |
| 2026-05-04 15:42 | 43.41222 | 2.53906 | 28904 ft | 407 kts | 263° |
| 2026-05-04 15:42 | 43.41155 | 2.49943 | 28483 ft | 410 kts | 263° |
| 2026-05-04 15:43 | 43.41088 | 2.46070 | 28085 ft | 412 kts | 264° |
| 2026-05-04 15:43 | 43.41020 | 2.42124 | 27661 ft | 414 kts | 264° |
| 2026-05-04 15:43 | 43.40950 | 2.38166 | 27254 ft | 415 kts | 264° |
| 2026-05-04 15:43 | 43.40880 | 2.34189 | 26835 ft | 416 kts | 264° |
| 2026-05-04 15:44 | 43.40806 | 2.30213 | 26429 ft | 416 kts | 264° |
| 2026-05-04 15:44 | 43.40732 | 2.26226 | 26013 ft | 417 kts | 264° |
| 2026-05-04 15:44 | 43.40657 | 2.22240 | 25592 ft | 418 kts | 264° |
| 2026-05-04 15:44 | 43.40581 | 2.18251 | 25183 ft | 417 kts | 264° |
| 2026-05-04 15:45 | 43.40504 | 2.14260 | 24774 ft | 417 kts | 264° |
| 2026-05-04 15:45 | 43.40425 | 2.10285 | 24360 ft | 415 kts | 264° |
| 2026-05-04 15:45 | 43.40346 | 2.06325 | 23954 ft | 413 kts | 264° |
| 2026-05-04 15:45 | 43.40265 | 2.02396 | 23550 ft | 410 kts | 264° |
| 2026-05-04 15:46 | 43.40183 | 1.98488 | 23076 ft | 407 kts | 264° |
| 2026-05-04 15:46 | 43.40102 | 1.94615 | 22662 ft | 403 kts | 264° |
| 2026-05-04 15:46 | 43.40019 | 1.90777 | 22270 ft | 400 kts | 264° |
| 2026-05-04 15:46 | 43.39935 | 1.86966 | 21838 ft | 398 kts | 264° |
| 2026-05-04 15:47 | 43.39849 | 1.83169 | 21415 ft | 397 kts | 264° |
| 2026-05-04 15:47 | 43.39763 | 1.79377 | 21007 ft | 396 kts | 264° |
| 2026-05-04 15:47 | 43.39675 | 1.75592 | 20604 ft | 396 kts | 264° |
| 2026-05-04 15:47 | 43.39586 | 1.71806 | 20206 ft | 396 kts | 264° |
| 2026-05-04 15:48 | 43.39497 | 1.68033 | 19800 ft | 395 kts | 264° |
| 2026-05-04 15:48 | 43.39406 | 1.64259 | 19403 ft | 395 kts | 264° |
| 2026-05-04 15:48 | 43.39222 | 1.56732 | 18614 ft | 393 kts | 265° |
| 2026-05-04 15:49 | 43.39128 | 1.52983 | 18212 ft | 392 kts | 265° |
| 2026-05-04 15:49 | 43.39034 | 1.49245 | 17759 ft | 391 kts | 265° |
| 2026-05-04 15:49 | 43.38938 | 1.45510 | 17317 ft | 389 kts | 265° |
| 2026-05-04 15:49 | 43.38843 | 1.41806 | 16905 ft | 386 kts | 265° |
| 2026-05-04 15:50 | 43.38746 | 1.38133 | 16506 ft | 383 kts | 265° |
| 2026-05-04 15:50 | 43.38650 | 1.34482 | 16117 ft | 381 kts | 265° |
| 2026-05-04 15:50 | 43.38553 | 1.30859 | 15725 ft | 378 kts | 265° |
| 2026-05-04 15:50 | 43.38456 | 1.27307 | 15340 ft | 376 kts | 265° |
| 2026-05-04 15:51 | 43.38395 | 1.23715 | 14950 ft | 375 kts | 268° |
| 2026-05-04 15:51 | 43.38469 | 1.20144 | 14579 ft | 372 kts | 270° |
| 2026-05-04 15:51 | 43.38599 | 1.16603 | 14194 ft | 369 kts | 270° |
| 2026-05-04 15:51 | 43.38739 | 1.13090 | 13832 ft | 367 kts | 270° |
| 2026-05-04 15:52 | 43.38874 | 1.09586 | 13390 ft | 366 kts | 270° |
| 2026-05-04 15:52 | 43.38999 | 1.06107 | 13005 ft | 364 kts | 270° |
| 2026-05-04 15:52 | 43.39117 | 1.02641 | 12588 ft | 362 kts | 270° |
| 2026-05-04 15:52 | 43.39229 | 0.99197 | 12202 ft | 359 kts | 270° |
| 2026-05-04 15:53 | 43.39335 | 0.95780 | 11816 ft | 357 kts | 270° |
| 2026-05-04 15:53 | 43.39439 | 0.92388 | 11447 ft | 354 kts | 270° |
| 2026-05-04 15:53 | 43.39540 | 0.89021 | 11085 ft | 351 kts | 270° |
| 2026-05-04 15:53 | 43.39639 | 0.85679 | 10715 ft | 349 kts | 270° |
| 2026-05-04 15:54 | 43.39737 | 0.82354 | 10343 ft | 346 kts | 271° |
| 2026-05-04 15:54 | 43.39832 | 0.79083 | 10055 ft | 337 kts | 270° |
| 2026-05-04 15:54 | 43.39924 | 0.75925 | 9855 ft | 326 kts | 270° |
| 2026-05-04 15:54 | 43.40013 | 0.72827 | 9468 ft | 322 kts | 270° |
| 2026-05-04 15:55 | 43.40099 | 0.69773 | 9133 ft | 318 kts | 270° |
| 2026-05-04 15:55 | 43.40183 | 0.66760 | 8783 ft | 313 kts | 271° |
| 2026-05-04 15:55 | 43.40265 | 0.63795 | 8453 ft | 308 kts | 271° |
| 2026-05-04 15:55 | 43.40345 | 0.60870 | 8149 ft | 304 kts | 271° |
| 2026-05-04 15:56 | 43.40423 | 0.57988 | 7838 ft | 301 kts | 272° |
| 2026-05-04 15:56 | 43.40501 | 0.55125 | 7529 ft | 298 kts | 272° |
| 2026-05-04 15:56 | 43.40576 | 0.52295 | 7230 ft | 295 kts | 272° |
| 2026-05-04 15:56 | 43.40651 | 0.49495 | 6921 ft | 292 kts | 272° |
| 2026-05-04 15:57 | 43.40724 | 0.46728 | 6635 ft | 288 kts | 272° |
| 2026-05-04 15:57 | 43.40794 | 0.43995 | 6352 ft | 284 kts | 272° |
| 2026-05-04 15:57 | 43.40863 | 0.41330 | 6044 ft | 281 kts | 272° |
| 2026-05-04 15:57 | 43.40667 | 0.38677 | 5760 ft | 280 kts | 254° |
| 2026-05-04 15:58 | 43.39937 | 0.36229 | 5518 ft | 275 kts | 248° |
| 2026-05-04 15:58 | 43.39165 | 0.33837 | 5231 ft | 272 kts | 248° |
| 2026-05-04 15:58 | 43.38413 | 0.31480 | 4996 ft | 267 kts | 248° |
| 2026-05-04 15:58 | 43.37685 | 0.29168 | 4868 ft | 259 kts | 249° |
| 2026-05-04 15:59 | 43.36988 | 0.26921 | 4737 ft | 254 kts | 249° |
| 2026-05-04 15:59 | 43.36309 | 0.24708 | 4639 ft | 247 kts | 250° |
| 2026-05-04 15:59 | 43.35651 | 0.22557 | 4519 ft | 241 kts | 250° |
| 2026-05-04 15:59 | 43.35013 | 0.20466 | 4416 ft | 234 kts | 250° |
| 2026-05-04 16:00 | 43.34383 | 0.18399 | 4186 ft | 234 kts | 250° |
| 2026-05-04 16:00 | 43.33756 | 0.16347 | 3950 ft | 232 kts | 250° |
| 2026-05-04 16:00 | 43.33152 | 0.14312 | 3696 ft | 229 kts | 254° |
| 2026-05-04 16:00 | 43.32685 | 0.12234 | 3460 ft | 227 kts | 254° |
| 2026-05-04 16:01 | 43.32489 | 0.10125 | 3195 ft | 223 kts | 281° |
| 2026-05-04 16:01 | 43.32793 | 0.08085 | 3062 ft | 212 kts | 272° |
| 2026-05-04 16:01 | 43.32309 | 0.06295 | 2980 ft | 199 kts | 229° |
| 2026-05-04 16:01 | 43.31087 | 0.05570 | 2989 ft | 194 kts | 189° |
| 2026-05-04 16:02 | 43.29750 | 0.05363 | 2987 ft | 187 kts | 202° |
| 2026-05-04 16:02 | 43.28574 | 0.04820 | 2990 ft | 172 kts | 207° |
| 2026-05-04 16:02 | 43.26383 | 0.03695 | 2735 ft | 160 kts | 207° |
| 2026-05-04 16:03 | 43.25395 | 0.03194 | 2532 ft | 145 kts | 208° |
| 2026-05-04 16:03 | 43.24467 | 0.02721 | 2350 ft | 142 kts | 208° |
| 2026-05-04 16:03 | 43.23534 | 0.02244 | 2158 ft | 144 kts | 208° |
| 2026-05-04 16:03 | 43.22586 | 0.01762 | 1943 ft | 147 kts | 206° |
| 2026-05-04 16:04 | 43.21600 | 0.01261 | 1749 ft | 154 kts | 205° |
| 2026-05-04 16:04 | 43.19623 | 0.00259 | 1339 ft | 149 kts | 204° |
| 2026-05-04 16:04 | 43.18673 | -0.00216 | 1193 ft | 137 kts | 202° |
| 2026-05-04 16:05 | 43.17978 | -0.00578 | 1217 ft | 76 kts | 200° |
| 2026-05-04 16:05 | 43.17667 | -0.00735 | 1222 ft | 29 kts | 200° |
| 2026-05-04 16:05 | 43.17308 | -0.00915 | 1237 ft | 26 kts | 200° |
| 2026-05-04 16:06 | 43.17208 | -0.00966 | 1243 ft | 18 kts | 200° |
| 2026-05-04 16:06 | 43.17068 | -0.00812 | 1254 ft | 10 kts | 85° |
| 2026-05-04 16:07 | 43.17119 | -0.00745 | 1243 ft | 13 kts | 22° |
| 2026-05-04 16:07 | 43.17432 | -0.00588 | 1229 ft | 16 kts | 20° |
| 2026-05-04 16:08 | 43.17536 | -0.00535 | 1225 ft | 16 kts | 20° |
| 2026-05-04 16:08 | 43.17808 | -0.00345 | 1218 ft | 14 kts | 28° |
| 2026-05-04 16:09 | 43.17969 | -0.00224 | 1213 ft | 13 kts | 29° |
| 2026-05-04 16:09 | 43.18120 | -0.00110 | 1208 ft | 12 kts | 29° |
| 2026-05-04 16:10 | 43.18264 | -0.00001 | 1203 ft | 11 kts | 29° |
| 2026-05-04 16:11 | 43.18425 | 0.00189 | 1222 ft | 10 kts | 108° |
| 2026-05-04 16:11 | 43.18426 | 0.00255 | 1218 ft | 5 kts | 57° |
| 2026-05-04 16:12 | 43.18479 | 0.00313 | 1217 ft | 0 kts | 37° |